This is the latest recevied weather packets stored in our database for station/object SY3EBK-13. If no packets are shown the sender has not sent any weather packets the latest 10 day(s).
| Time | Temp. | Humidity | Pressure | Rain* | Wind** | Luminosity | Snow |
|---|---|---|---|---|---|---|---|
| 1788150556 | 22.22° C | 52% | 916.7 hPa | - | 0 m/s | - | - |
| 1788149656 | 22.22° C | 52% | 916.7 hPa | - | 0 m/s | - | - |
| 1788148756 | 22.22° C | 52% | 916.7 hPa | - | 0 m/s | - | - |
| 1788147856 | 22.22° C | 54% | 916.6 hPa | - | 0 m/s | - | - |
| 1788146956 | 22.22° C | 57% | 916.6 hPa | - | 0 m/s | - | - |
| 1788146056 | 22.22° C | 55% | 916.7 hPa | - | 0 m/s | - | - |
| 1788145156 | 22.22° C | 53% | 916.7 hPa | - | 0 m/s | - | - |
| 1788123557 | 25.56° C | 57% | 917.7 hPa | - | 0 m/s | - | - |
| 1788122657 | 25.56° C | 56% | 917.7 hPa | - | 0 m/s | - | - |
| 1788120857 | 26.11° C | 56% | 917.6 hPa | - | 0 m/s | - | - |
| 1788117257 | 26.67° C | 57% | 917.5 hPa | - | 0 m/s | - | - |
| 1788114557 | 27.78° C | 54% | 917.4 hPa | - | 0 m/s | - | - |
| 1788113657 | 27.22° C | 54% | 917.2 hPa | - | 0 m/s | - | - |
| 1788109552 | 28.89° C | 49% | 916.5 hPa | - | 0 m/s | - | - |
| 1788107752 | 29.44° C | 46% | 916.4 hPa | - | 0 m/s | - | - |
| 1788105952 | 30° C | 45% | 916.2 hPa | - | 0 m/s | - | - |
| 1788105052 | 30° C | 43% | 916.4 hPa | - | 0 m/s | - | - |
| 1788104152 | 30.56° C | 42% | 916.6 hPa | - | 0 m/s | - | - |
| 1788103252 | 30.56° C | 42% | 916.5 hPa | - | 0 m/s | - | - |
| 1788102352 | 30.56° C | 41% | 916.5 hPa | - | 0 m/s | - | - |
| 1788101452 | 31.11° C | 41% | 916.4 hPa | - | 0 m/s | - | - |
| 1788100552 | 31.11° C | 40% | 916.4 hPa | - | 0 m/s | - | - |
| 1788099652 | 31.67° C | 39% | 916.4 hPa | - | 0 m/s | - | - |
| 1788098752 | 31.11° C | 40% | 916.3 hPa | - | 0 m/s | - | - |
| 1788097852 | 31.67° C | 39% | 916.2 hPa | - | 0 m/s | - | - |
* Rain since midnight (hover to see other rain measurements)
** Current wind speed in m/s (hover to see current wind gust speed)